sensor_id;sensor_type;location;lat;lon;timestamp;pressure;altitude;pressure_sealevel;temperature;humidity
250;BME280;109;19.806;-70.704;2023-02-17T00:01:29;101842.41;;;21.51;72.91
250;BME280;109;19.806;-70.704;2023-02-17T00:03:56;101838.13;;;21.46;73.12
250;BME280;109;19.806;-70.704;2023-02-17T00:06:25;101834.44;;;21.50;73.46
250;BME280;109;19.806;-70.704;2023-02-17T00:08:52;101845.03;;;21.53;73.71
250;BME280;109;19.806;-70.704;2023-02-17T00:11:19;101844.25;;;21.48;73.84
250;BME280;109;19.806;-70.704;2023-02-17T00:13:45;101850.88;;;21.32;73.64
250;BME280;109;19.806;-70.704;2023-02-17T00:16:17;101846.84;;;21.51;73.74
250;BME280;109;19.806;-70.704;2023-02-17T00:18:59;101852.06;;;21.57;73.58
250;BME280;109;19.806;-70.704;2023-02-17T00:21:32;101853.09;;;21.50;72.88
250;BME280;109;19.806;-70.704;2023-02-17T00:23:59;101852.41;;;21.42;72.64
250;BME280;109;19.806;-70.704;2023-02-17T00:26:32;101860.38;;;21.43;72.43
250;BME280;109;19.806;-70.704;2023-02-17T00:29:13;101856.56;;;21.53;72.82
250;BME280;109;19.806;-70.704;2023-02-17T00:31:40;101860.06;;;21.57;72.61
250;BME280;109;19.806;-70.704;2023-02-17T00:34:22;101863.66;;;21.54;72.62
250;BME280;109;19.806;-70.704;2023-02-17T00:36:49;101866.09;;;21.64;72.77
250;BME280;109;19.806;-70.704;2023-02-17T00:39:29;101870.59;;;21.62;72.64
250;BME280;109;19.806;-70.704;2023-02-17T00:42:11;101874.09;;;21.64;72.27
250;BME280;109;19.806;-70.704;2023-02-17T00:44:52;101878.47;;;21.66;72.38
250;BME280;109;19.806;-70.704;2023-02-17T00:47:32;101883.94;;;21.60;72.03
250;BME280;109;19.806;-70.704;2023-02-17T00:49:59;101887.94;;;21.41;72.16
250;BME280;109;19.806;-70.704;2023-02-17T00:52:38;101890.38;;;21.50;72.46
250;BME280;109;19.806;-70.704;2023-02-17T00:55:06;101885.28;;;21.41;72.67
250;BME280;109;19.806;-70.704;2023-02-17T00:57:47;101889.09;;;21.28;73.20
250;BME280;109;19.806;-70.704;2023-02-17T01:00:14;101886.44;;;21.28;73.42
250;BME280;109;19.806;-70.704;2023-02-17T01:02:55;101901.94;;;21.49;72.90
250;BME280;109;19.806;-70.704;2023-02-17T01:05:22;101910.72;;;21.54;72.53
250;BME280;109;19.806;-70.704;2023-02-17T01:08:02;101902.97;;;21.43;72.90
250;BME280;109;19.806;-70.704;2023-02-17T01:10:29;101901.47;;;21.32;72.82
250;BME280;109;19.806;-70.704;2023-02-17T01:13:09;101891.56;;;21.37;73.09
250;BME280;109;19.806;-70.704;2023-02-17T01:15:40;101887.00;;;21.43;73.25
250;BME280;109;19.806;-70.704;2023-02-17T01:18:23;101896.63;;;21.49;72.62
250;BME280;109;19.806;-70.704;2023-02-17T01:20:50;101901.00;;;21.51;72.47
250;BME280;109;19.806;-70.704;2023-02-17T01:23:39;101896.75;;;21.44;72.77
250;BME280;109;19.806;-70.704;2023-02-17T01:26:22;101891.78;;;21.28;73.10
250;BME280;109;19.806;-70.704;2023-02-17T01:29:10;101893.63;;;21.24;72.97
250;BME280;109;19.806;-70.704;2023-02-17T01:31:43;101889.09;;;21.28;73.60
250;BME280;109;19.806;-70.704;2023-02-17T01:34:26;101892.59;;;21.31;73.34
250;BME280;109;19.806;-70.704;2023-02-17T01:36:52;101896.91;;;21.37;73.67
250;BME280;109;19.806;-70.704;2023-02-17T01:39:35;101898.50;;;21.45;73.32
250;BME280;109;19.806;-70.704;2023-02-17T01:42:01;101902.94;;;21.45;73.26
250;BME280;109;19.806;-70.704;2023-02-17T01:50:32;101901.69;;;21.61;73.45
250;BME280;109;19.806;-70.704;2023-02-17T01:53:18;101891.25;;;21.52;72.90
250;BME280;109;19.806;-70.704;2023-02-17T01:55:54;101900.97;;;21.54;73.30
250;BME280;109;19.806;-70.704;2023-02-17T01:58:39;101906.44;;;21.47;73.15
250;BME280;109;19.806;-70.704;2023-02-17T02:01:15;101906.63;;;21.38;73.57
250;BME280;109;19.806;-70.704;2023-02-17T02:03:55;101901.53;;;21.29;73.66
250;BME280;109;19.806;-70.704;2023-02-17T02:06:25;101900.28;;;21.45;73.89
250;BME280;109;19.806;-70.704;2023-02-17T02:09:12;101906.50;;;21.45;73.47
250;BME280;109;19.806;-70.704;2023-02-17T02:11:50;101910.13;;;21.41;73.61
250;BME280;109;19.806;-70.704;2023-02-17T02:14:31;101907.72;;;21.29;73.65
250;BME280;109;19.806;-70.704;2023-02-17T02:17:05;101898.84;;;21.29;73.80
250;BME280;109;19.806;-70.704;2023-02-17T02:26:24;101904.13;;;21.32;73.88
250;BME280;109;19.806;-70.704;2023-02-17T02:43:57;101896.16;;;21.30;73.42
250;BME280;109;19.806;-70.704;2023-02-17T02:46:23;101901.47;;;21.32;73.73
250;BME280;109;19.806;-70.704;2023-02-17T02:49:03;101901.34;;;21.36;73.66
250;BME280;109;19.806;-70.704;2023-02-17T02:55:00;101898.03;;;21.25;73.70
250;BME280;109;19.806;-70.704;2023-02-17T03:00:39;101906.00;;;21.27;73.88
250;BME280;109;19.806;-70.704;2023-02-17T03:03:33;101903.44;;;21.20;73.67
250;BME280;109;19.806;-70.704;2023-02-17T03:06:30;101906.06;;;21.23;74.20
250;BME280;109;19.806;-70.704;2023-02-17T03:09:22;101903.50;;;21.19;74.00
250;BME280;109;19.806;-70.704;2023-02-17T03:11:57;101902.59;;;21.20;74.08
250;BME280;109;19.806;-70.704;2023-02-17T03:14:38;101903.28;;;21.30;74.53
250;BME280;109;19.806;-70.704;2023-02-17T03:17:04;101905.16;;;21.24;74.13
250;BME280;109;19.806;-70.704;2023-02-17T03:19:49;101908.84;;;21.19;74.41
250;BME280;109;19.806;-70.704;2023-02-17T03:22:44;101899.84;;;21.23;74.15
250;BME280;109;19.806;-70.704;2023-02-17T03:25:24;101898.84;;;21.29;74.33
250;BME280;109;19.806;-70.704;2023-02-17T03:28:03;101893.47;;;21.32;74.21
250;BME280;109;19.806;-70.704;2023-02-17T03:30:38;101888.13;;;21.33;74.38
250;BME280;109;19.806;-70.704;2023-02-17T03:33:18;101888.97;;;21.34;73.58
250;BME280;109;19.806;-70.704;2023-02-17T03:35:44;101889.19;;;21.23;74.12
250;BME280;109;19.806;-70.704;2023-02-17T03:38:25;101882.94;;;21.26;73.88
250;BME280;109;19.806;-70.704;2023-02-17T03:40:51;101885.75;;;21.19;74.10
250;BME280;109;19.806;-70.704;2023-02-17T03:43:31;101883.25;;;21.09;74.22
250;BME280;109;19.806;-70.704;2023-02-17T03:45:58;101883.19;;;21.13;73.97
250;BME280;109;19.806;-70.704;2023-02-17T03:48:37;101884.94;;;21.16;74.04
250;BME280;109;19.806;-70.704;2023-02-17T03:51:14;101884.75;;;21.23;73.76
250;BME280;109;19.806;-70.704;2023-02-17T03:53:55;101885.78;;;21.18;73.56
250;BME280;109;19.806;-70.704;2023-02-17T03:56:22;101892.03;;;21.15;73.47
250;BME280;109;19.806;-70.704;2023-02-17T03:59:02;101890.34;;;21.08;73.51
250;BME280;109;19.806;-70.704;2023-02-17T04:01:29;101892.13;;;21.08;73.98
250;BME280;109;19.806;-70.704;2023-02-17T04:04:09;101889.66;;;20.99;73.90
250;BME280;109;19.806;-70.704;2023-02-17T04:06:36;101868.97;;;21.14;73.84
250;BME280;109;19.806;-70.704;2023-02-17T04:09:17;101872.72;;;21.04;73.92
250;BME280;109;19.806;-70.704;2023-02-17T04:11:52;101869.13;;;21.07;73.80
250;BME280;109;19.806;-70.704;2023-02-17T04:14:31;101857.75;;;20.97;73.64
250;BME280;109;19.806;-70.704;2023-02-17T04:16:58;101870.03;;;21.06;73.71
250;BME280;109;19.806;-70.704;2023-02-17T04:19:37;101869.16;;;21.05;73.38
250;BME280;109;19.806;-70.704;2023-02-17T04:22:03;101869.41;;;20.93;73.81
250;BME280;109;19.806;-70.704;2023-02-17T04:24:51;101874.78;;;20.90;73.51
250;BME280;109;19.806;-70.704;2023-02-17T04:27:30;101872.88;;;20.95;73.76
250;BME280;109;19.806;-70.704;2023-02-17T04:29:56;101877.50;;;20.87;73.97
250;BME280;109;19.806;-70.704;2023-02-17T04:32:36;101873.38;;;20.71;73.82
250;BME280;109;19.806;-70.704;2023-02-17T04:35:03;101870.59;;;20.77;73.98
250;BME280;109;19.806;-70.704;2023-02-17T04:37:42;101874.84;;;20.85;74.00
250;BME280;109;19.806;-70.704;2023-02-17T04:40:09;101864.31;;;20.81;74.44
250;BME280;109;19.806;-70.704;2023-02-17T04:42:50;101867.88;;;20.80;74.27
250;BME280;109;19.806;-70.704;2023-02-17T04:45:17;101866.09;;;20.80;74.04
250;BME280;109;19.806;-70.704;2023-02-17T04:47:56;101856.25;;;20.84;74.42
250;BME280;109;19.806;-70.704;2023-02-17T04:50:22;101853.13;;;20.64;74.47
250;BME280;109;19.806;-70.704;2023-02-17T04:53:02;101855.38;;;20.83;74.19
250;BME280;109;19.806;-70.704;2023-02-17T04:55:29;101846.72;;;20.74;74.33
250;BME280;109;19.806;-70.704;2023-02-17T04:58:10;101842.25;;;20.74;74.34
250;BME280;109;19.806;-70.704;2023-02-17T05:00:37;101842.31;;;20.71;74.49
250;BME280;109;19.806;-70.704;2023-02-17T05:03:17;101839.56;;;20.76;74.98
250;BME280;109;19.806;-70.704;2023-02-17T05:05:44;101844.03;;;20.75;74.90
250;BME280;109;19.806;-70.704;2023-02-17T05:08:23;101834.56;;;20.59;75.00
250;BME280;109;19.806;-70.704;2023-02-17T05:10:57;101827.38;;;20.66;74.97
250;BME280;109;19.806;-70.704;2023-02-17T05:13:38;101830.19;;;20.57;75.46
250;BME280;109;19.806;-70.704;2023-02-17T05:16:05;101829.28;;;20.58;75.18
250;BME280;109;19.806;-70.704;2023-02-17T05:18:44;101822.94;;;20.66;74.81
250;BME280;109;19.806;-70.704;2023-02-17T05:21:10;101822.94;;;20.65;75.26
250;BME280;109;19.806;-70.704;2023-02-17T05:23:57;101822.97;;;20.63;75.37
250;BME280;109;19.806;-70.704;2023-02-17T05:26:36;101819.53;;;20.57;74.96
250;BME280;109;19.806;-70.704;2023-02-17T05:29:17;101820.34;;;20.62;75.13
250;BME280;109;19.806;-70.704;2023-02-17T05:31:44;101825.91;;;20.49;75.17
250;BME280;109;19.806;-70.704;2023-02-17T05:34:23;101811.72;;;20.47;74.88
250;BME280;109;19.806;-70.704;2023-02-17T05:36:50;101800.94;;;20.57;75.11
250;BME280;109;19.806;-70.704;2023-02-17T05:39:29;101807.16;;;20.56;75.36
250;BME280;109;19.806;-70.704;2023-02-17T05:41:56;101813.22;;;20.64;74.93
250;BME280;109;19.806;-70.704;2023-02-17T05:44:36;101808.59;;;20.73;75.17
250;BME280;109;19.806;-70.704;2023-02-17T05:47:03;101789.31;;;20.62;75.04
250;BME280;109;19.806;-70.704;2023-02-17T05:49:43;101801.53;;;20.71;74.71
250;BME280;109;19.806;-70.704;2023-02-17T05:52:23;101786.91;;;20.48;75.35
250;BME280;109;19.806;-70.704;2023-02-17T05:54:49;101787.38;;;20.69;74.81
250;BME280;109;19.806;-70.704;2023-02-17T05:57:29;101786.38;;;20.76;74.98
250;BME280;109;19.806;-70.704;2023-02-17T06:00:04;101781.09;;;20.73;74.85
250;BME280;109;19.806;-70.704;2023-02-17T06:02:45;101790.84;;;20.74;74.66
250;BME280;109;19.806;-70.704;2023-02-17T06:05:12;101776.81;;;20.66;74.76
250;BME280;109;19.806;-70.704;2023-02-17T06:07:51;101782.13;;;20.67;74.58
250;BME280;109;19.806;-70.704;2023-02-17T06:10:18;101780.97;;;20.79;74.86
250;BME280;109;19.806;-70.704;2023-02-17T06:12:57;101771.22;;;20.79;74.52
250;BME280;109;19.806;-70.704;2023-02-17T06:15:24;101767.66;;;20.80;74.46
250;BME280;109;19.806;-70.704;2023-02-17T06:18:05;101767.44;;;20.89;74.18
250;BME280;109;19.806;-70.704;2023-02-17T06:20:31;101763.91;;;20.89;74.58
250;BME280;109;19.806;-70.704;2023-02-17T06:23:11;101755.84;;;20.94;74.46
250;BME280;109;19.806;-70.704;2023-02-17T06:25:38;101756.19;;;20.77;74.29
250;BME280;109;19.806;-70.704;2023-02-17T06:28:24;101752.63;;;20.78;74.67
250;BME280;109;19.806;-70.704;2023-02-17T06:30:57;101752.34;;;20.90;74.40
250;BME280;109;19.806;-70.704;2023-02-17T06:33:38;101740.75;;;20.94;74.01
250;BME280;109;19.806;-70.704;2023-02-17T06:36:05;101735.72;;;20.80;73.89
250;BME280;109;19.806;-70.704;2023-02-17T06:38:45;101735.56;;;20.86;74.17
250;BME280;109;19.806;-70.704;2023-02-17T06:41:11;101730.25;;;20.86;74.42
250;BME280;109;19.806;-70.704;2023-02-17T06:43:51;101738.19;;;20.88;74.33
250;BME280;109;19.806;-70.704;2023-02-17T06:46:18;101730.41;;;20.80;74.41
250;BME280;109;19.806;-70.704;2023-02-17T06:48:58;101725.81;;;20.87;74.16
250;BME280;109;19.806;-70.704;2023-02-17T06:51:34;101731.66;;;21.03;73.73
250;BME280;109;19.806;-70.704;2023-02-17T06:54:14;101716.50;;;21.06;74.19
250;BME280;109;19.806;-70.704;2023-02-17T06:56:41;101732.31;;;21.12;73.54
250;BME280;109;19.806;-70.704;2023-02-17T06:59:20;101731.66;;;21.03;73.36
250;BME280;109;19.806;-70.704;2023-02-17T07:01:47;101733.28;;;21.08;73.78
250;BME280;109;19.806;-70.704;2023-02-17T07:04:27;101733.41;;;21.05;73.70
250;BME280;109;19.806;-70.704;2023-02-17T07:06:54;101741.56;;;20.96;74.05
250;BME280;109;19.806;-70.704;2023-02-17T07:09:33;101723.13;;;20.88;74.34
250;BME280;109;19.806;-70.704;2023-02-17T07:12:00;101729.31;;;20.89;74.33
250;BME280;109;19.806;-70.704;2023-02-17T07:14:40;101719.09;;;21.08;73.97
250;BME280;109;19.806;-70.704;2023-02-17T07:17:07;101726.09;;;21.15;73.38
250;BME280;109;19.806;-70.704;2023-02-17T07:19:47;101731.47;;;21.10;72.88
250;BME280;109;19.806;-70.704;2023-02-17T07:22:27;101712.78;;;21.15;72.81
250;BME280;109;19.806;-70.704;2023-02-17T07:24:53;101719.59;;;21.27;72.26
250;BME280;109;19.806;-70.704;2023-02-17T07:27:40;101721.94;;;21.40;72.49
250;BME280;109;19.806;-70.704;2023-02-17T07:30:13;101714.66;;;21.47;71.88
250;BME280;109;19.806;-70.704;2023-02-17T07:32:53;101728.25;;;21.36;72.08
250;BME280;109;19.806;-70.704;2023-02-17T07:35:20;101715.41;;;21.53;71.73
250;BME280;109;19.806;-70.704;2023-02-17T07:38:00;101724.09;;;21.60;70.88
250;BME280;109;19.806;-70.704;2023-02-17T07:40:27;101728.75;;;21.52;70.60
250;BME280;109;19.806;-70.704;2023-02-17T07:43:06;101727.59;;;21.62;70.76
250;BME280;109;19.806;-70.704;2023-02-17T07:45:33;101729.03;;;21.75;69.04
250;BME280;109;19.806;-70.704;2023-02-17T07:48:20;101723.88;;;21.69;69.57
250;BME280;109;19.806;-70.704;2023-02-17T07:50:53;101717.75;;;21.66;69.42
250;BME280;109;19.806;-70.704;2023-02-17T07:53:35;101720.19;;;21.73;69.71
250;BME280;109;19.806;-70.704;2023-02-17T07:56:03;101719.41;;;21.71;68.77
250;BME280;109;19.806;-70.704;2023-02-17T07:58:44;101725.47;;;21.78;69.99
250;BME280;109;19.806;-70.704;2023-02-17T08:01:13;101719.81;;;21.90;69.39
250;BME280;109;19.806;-70.704;2023-02-17T08:03:54;101723.66;;;21.78;68.07
250;BME280;109;19.806;-70.704;2023-02-17T08:06:22;101711.81;;;21.90;68.52
250;BME280;109;19.806;-70.704;2023-02-17T08:09:04;101709.91;;;21.95;68.20
250;BME280;109;19.806;-70.704;2023-02-17T08:11:55;101713.53;;;21.92;69.46
250;BME280;109;19.806;-70.704;2023-02-17T08:14:56;101701.03;;;21.94;68.43
250;BME280;109;19.806;-70.704;2023-02-17T08:17:36;101708.31;;;21.88;68.64
250;BME280;109;19.806;-70.704;2023-02-17T08:20:04;101712.53;;;21.97;68.72
250;BME280;109;19.806;-70.704;2023-02-17T08:22:47;101705.34;;;21.99;68.15
250;BME280;109;19.806;-70.704;2023-02-17T08:25:21;101709.88;;;21.97;68.18
250;BME280;109;19.806;-70.704;2023-02-17T08:28:03;101712.28;;;22.06;68.67
250;BME280;109;19.806;-70.704;2023-02-17T08:30:30;101704.50;;;21.98;67.94
250;BME280;109;19.806;-70.704;2023-02-17T08:33:13;101704.38;;;22.01;68.14
250;BME280;109;19.806;-70.704;2023-02-17T08:35:44;101705.34;;;21.99;68.00
250;BME280;109;19.806;-70.704;2023-02-17T08:38:24;101706.59;;;21.85;67.82
250;BME280;109;19.806;-70.704;2023-02-17T08:40:52;101706.59;;;21.85;67.81
250;BME280;109;19.806;-70.704;2023-02-17T08:43:32;101698.97;;;22.04;68.23
250;BME280;109;19.806;-70.704;2023-02-17T08:45:59;101706.50;;;21.88;66.57
250;BME280;109;19.806;-70.704;2023-02-17T08:48:46;101699.34;;;21.90;66.79
250;BME280;109;19.806;-70.704;2023-02-17T08:51:21;101701.91;;;21.95;66.08
250;BME280;109;19.806;-70.704;2023-02-17T08:54:03;101703.72;;;21.93;65.73
250;BME280;109;19.806;-70.704;2023-02-17T08:56:32;101701.94;;;21.93;65.59
250;BME280;109;19.806;-70.704;2023-02-17T08:59:13;101705.34;;;21.99;65.76
250;BME280;109;19.806;-70.704;2023-02-17T09:01:40;101705.44;;;21.96;65.60
250;BME280;109;19.806;-70.704;2023-02-17T09:04:20;101705.50;;;21.94;65.49
250;BME280;109;19.806;-70.704;2023-02-17T09:06:49;101705.25;;;22.02;65.65
250;BME280;109;19.806;-70.704;2023-02-17T09:09:30;101702.75;;;21.97;66.67
250;BME280;109;19.806;-70.704;2023-02-17T09:12:10;101711.66;;;21.96;65.70
250;BME280;109;19.806;-70.704;2023-02-17T09:14:37;101709.59;;;22.06;65.90
250;BME280;109;19.806;-70.704;2023-02-17T09:17:16;101709.69;;;22.03;65.39
250;BME280;109;19.806;-70.704;2023-02-17T09:19:43;101720.84;;;22.17;66.63
250;BME280;109;19.806;-70.704;2023-02-17T09:22:22;101706.88;;;22.09;66.23
250;BME280;109;19.806;-70.704;2023-02-17T09:24:49;101712.94;;;22.14;66.29
250;BME280;109;19.806;-70.704;2023-02-17T09:27:36;101718.22;;;22.15;65.19
250;BME280;109;19.806;-70.704;2023-02-17T09:30:10;101712.19;;;22.09;65.96
250;BME280;109;19.806;-70.704;2023-02-17T09:32:50;101717.91;;;21.95;65.80
250;BME280;109;19.806;-70.704;2023-02-17T09:35:17;101720.94;;;22.14;65.92
250;BME280;109;19.806;-70.704;2023-02-17T09:37:57;101717.06;;;21.93;66.18
250;BME280;109;19.806;-70.704;2023-02-17T09:43:26;101725.63;;;22.04;65.24
250;BME280;109;19.806;-70.704;2023-02-17T09:46:06;101723.22;;;21.95;65.30
250;BME280;109;19.806;-70.704;2023-02-17T09:48:53;101725.16;;;22.22;65.15
250;BME280;109;19.806;-70.704;2023-02-17T09:51:33;101726.97;;;22.20;64.64
250;BME280;109;19.806;-70.704;2023-02-17T09:54:15;101729.78;;;22.14;65.22
250;BME280;109;19.806;-70.704;2023-02-17T09:56:57;101728.91;;;22.14;64.65
250;BME280;109;19.806;-70.704;2023-02-17T10:05:50;101741.34;;;21.82;65.56
250;BME280;109;19.806;-70.704;2023-02-17T10:09:14;101743.16;;;21.80;65.58
250;BME280;109;19.806;-70.704;2023-02-17T10:12:07;101748.47;;;21.82;66.03
250;BME280;109;19.806;-70.704;2023-02-17T10:14:49;101744.09;;;21.78;65.87
250;BME280;109;19.806;-70.704;2023-02-17T10:20:33;101753.00;;;21.75;66.63
250;BME280;109;19.806;-70.704;2023-02-17T10:23:19;101768.41;;;21.64;66.51
250;BME280;109;19.806;-70.704;2023-02-17T10:32:09;101765.63;;;21.69;66.97
250;BME280;109;19.806;-70.704;2023-02-17T10:38:02;101771.22;;;21.58;67.22
250;BME280;109;19.806;-70.704;2023-02-17T10:40:48;101766.94;;;21.51;67.10
250;BME280;109;19.806;-70.704;2023-02-17T10:43:26;101771.44;;;21.49;67.20
250;BME280;109;19.806;-70.704;2023-02-17T10:46:07;101774.91;;;21.52;66.63
250;BME280;109;19.806;-70.704;2023-02-17T10:48:37;101775.00;;;21.48;66.35
250;BME280;109;19.806;-70.704;2023-02-17T10:51:06;101782.09;;;21.49;66.93
250;BME280;109;19.806;-70.704;2023-02-17T10:53:37;101792.75;;;21.49;66.51
250;BME280;109;19.806;-70.704;2023-02-17T10:56:13;101791.16;;;21.42;66.72
250;BME280;109;19.806;-70.704;2023-02-17T11:01:12;101796.50;;;21.40;67.04
250;BME280;109;19.806;-70.704;2023-02-17T11:03:40;101793.50;;;21.55;66.66
250;BME280;109;19.806;-70.704;2023-02-17T11:06:16;101805.97;;;21.53;66.18
250;BME280;109;19.806;-70.704;2023-02-17T11:09:05;101807.19;;;21.39;66.37
250;BME280;109;19.806;-70.704;2023-02-17T11:11:37;101810.59;;;21.45;66.35
250;BME280;109;19.806;-70.704;2023-02-17T11:14:33;101814.25;;;21.41;66.56
250;BME280;109;19.806;-70.704;2023-02-17T11:17:29;101810.78;;;21.36;66.36
250;BME280;109;19.806;-70.704;2023-02-17T11:20:04;101814.47;;;21.32;66.51
250;BME280;109;19.806;-70.704;2023-02-17T11:25:04;101824.34;;;21.26;66.72
250;BME280;109;19.806;-70.704;2023-02-17T11:27:32;101814.63;;;21.24;66.62
250;BME280;109;19.806;-70.704;2023-02-17T11:30:06;101819.84;;;21.29;66.46
250;BME280;109;19.806;-70.704;2023-02-17T11:32:33;101819.31;;;21.10;66.49
250;BME280;109;19.806;-70.704;2023-02-17T11:35:01;101821.56;;;21.32;66.19
250;BME280;109;19.806;-70.704;2023-02-17T11:37:31;101831.47;;;21.25;66.40
250;BME280;109;19.806;-70.704;2023-02-17T11:39:59;101844.09;;;21.17;66.58
250;BME280;109;19.806;-70.704;2023-02-17T11:42:30;101841.78;;;21.40;66.25
250;BME280;109;19.806;-70.704;2023-02-17T11:44:59;101838.19;;;21.43;66.31
250;BME280;109;19.806;-70.704;2023-02-17T11:47:40;101840.94;;;21.38;65.88
250;BME280;109;19.806;-70.704;2023-02-17T11:50:25;101849.28;;;21.21;66.20
250;BME280;109;19.806;-70.704;2023-02-17T12:04:33;101859.00;;;21.64;64.40
250;BME280;109;19.806;-70.704;2023-02-17T12:16:20;101874.03;;;22.05;63.65
250;BME280;109;19.806;-70.704;2023-02-17T12:30:02;101890.03;;;22.05;63.24
250;BME280;109;19.806;-70.704;2023-02-17T12:32:47;101898.34;;;21.91;63.04
250;BME280;109;19.806;-70.704;2023-02-17T12:35:24;101898.91;;;22.06;63.51
250;BME280;109;19.806;-70.704;2023-02-17T12:37:59;101900.66;;;22.42;62.50
250;BME280;109;19.806;-70.704;2023-02-17T12:40:40;101898.06;;;22.73;62.64
250;BME280;109;19.806;-70.704;2023-02-17T12:46:08;101901.81;;;23.00;61.37
250;BME280;109;19.806;-70.704;2023-02-17T12:48:42;101909.03;;;22.95;61.26
250;BME280;109;19.806;-70.704;2023-02-17T12:51:20;101906.00;;;23.09;60.87
250;BME280;109;19.806;-70.704;2023-02-17T12:54:11;101917.44;;;23.14;60.56
250;BME280;109;19.806;-70.704;2023-02-17T12:57:07;101913.53;;;23.25;60.54
250;BME280;109;19.806;-70.704;2023-02-17T12:59:42;101914.13;;;23.35;60.31
250;BME280;109;19.806;-70.704;2023-02-17T13:02:18;101920.22;;;23.40;59.81
250;BME280;109;19.806;-70.704;2023-02-17T13:04:48;101923.94;;;23.34;59.68
250;BME280;109;19.806;-70.704;2023-02-17T13:07:35;101926.56;;;23.36;59.69
250;BME280;109;19.806;-70.704;2023-02-17T13:10:05;101917.59;;;23.39;59.56
250;BME280;109;19.806;-70.704;2023-02-17T13:12:35;101925.94;;;23.56;59.54
250;BME280;109;19.806;-70.704;2023-02-17T13:15:25;101931.13;;;23.63;59.78
250;BME280;109;19.806;-70.704;2023-02-17T13:17:55;101928.16;;;23.73;59.32
250;BME280;109;19.806;-70.704;2023-02-17T13:20:36;101933.22;;;23.52;59.18
250;BME280;109;19.806;-70.704;2023-02-17T13:23:10;101939.25;;;23.88;58.66
250;BME280;109;19.806;-70.704;2023-02-17T13:25:37;101932.72;;;23.97;57.83
250;BME280;109;19.806;-70.704;2023-02-17T13:28:17;101922.84;;;23.99;58.12
250;BME280;109;19.806;-70.704;2023-02-17T13:30:45;101930.91;;;23.97;57.73
250;BME280;109;19.806;-70.704;2023-02-17T13:35:46;101931.91;;;24.23;57.56
250;BME280;109;19.806;-70.704;2023-02-17T13:38:12;101927.53;;;24.20;56.97
250;BME280;109;19.806;-70.704;2023-02-17T13:40:41;101931.72;;;24.29;56.75
250;BME280;109;19.806;-70.704;2023-02-17T13:43:18;101930.44;;;24.13;56.66
250;BME280;109;19.806;-70.704;2023-02-17T13:45:56;101926.13;;;24.35;56.59
250;BME280;109;19.806;-70.704;2023-02-17T13:48:28;101927.03;;;24.60;56.90
250;BME280;109;19.806;-70.704;2023-02-17T13:50:57;101932.81;;;24.74;56.33
250;BME280;109;19.806;-70.704;2023-02-17T13:53:28;101932.38;;;24.87;56.58
250;BME280;109;19.806;-70.704;2023-02-17T13:56:07;101929.78;;;24.59;56.07
250;BME280;109;19.806;-70.704;2023-02-17T13:58:39;101928.34;;;24.75;56.47
250;BME280;109;19.806;-70.704;2023-02-17T14:01:12;101925.78;;;24.97;56.81
250;BME280;109;19.806;-70.704;2023-02-17T14:03:49;101922.16;;;24.98;55.73
250;BME280;109;19.806;-70.704;2023-02-17T14:08:55;101926.94;;;25.13;55.25
250;BME280;109;19.806;-70.704;2023-02-17T14:11:27;101926.44;;;25.27;55.81
250;BME280;109;19.806;-70.704;2023-02-17T14:13:55;101932.41;;;25.10;55.11
250;BME280;109;19.806;-70.704;2023-02-17T14:16:40;101929.66;;;24.88;55.61
250;BME280;109;19.806;-70.704;2023-02-17T14:19:17;101928.63;;;24.41;56.20
250;BME280;109;19.806;-70.704;2023-02-17T14:22:04;101929.78;;;24.59;55.71
250;BME280;109;19.806;-70.704;2023-02-17T14:24:33;101928.25;;;24.78;55.81
250;BME280;109;19.806;-70.704;2023-02-17T14:27:03;101930.44;;;24.92;56.02
250;BME280;109;19.806;-70.704;2023-02-17T14:29:46;101932.56;;;25.07;55.18
250;BME280;109;19.806;-70.704;2023-02-17T14:32:45;101942.44;;;25.05;55.69
250;BME280;109;19.806;-70.704;2023-02-17T14:37:39;101934.97;;;24.63;56.87
250;BME280;109;19.806;-70.704;2023-02-17T14:40:15;101925.31;;;24.33;57.08
250;BME280;109;19.806;-70.704;2023-02-17T14:42:43;101935.31;;;24.00;57.67
250;BME280;109;19.806;-70.704;2023-02-17T14:45:10;101943.22;;;24.03;58.68
250;BME280;109;19.806;-70.704;2023-02-17T14:47:36;101945.75;;;23.80;60.40
250;BME280;109;19.806;-70.704;2023-02-17T14:50:03;101945.69;;;23.52;62.55
250;BME280;109;19.806;-70.704;2023-02-17T14:52:30;101950.91;;;23.25;63.35
250;BME280;109;19.806;-70.704;2023-02-17T14:54:58;101937.28;;;23.34;62.23
250;BME280;109;19.806;-70.704;2023-02-17T14:57:26;101937.94;;;23.43;63.07
250;BME280;109;19.806;-70.704;2023-02-17T14:59:53;101941.38;;;23.46;62.83
250;BME280;109;19.806;-70.704;2023-02-17T15:02:22;101939.03;;;23.66;62.66
250;BME280;109;19.806;-70.704;2023-02-17T15:04:49;101944.78;;;23.53;63.12
250;BME280;109;19.806;-70.704;2023-02-17T15:07:17;101939.75;;;23.72;63.65
250;BME280;109;19.806;-70.704;2023-02-17T15:09:46;101939.25;;;23.59;63.46
250;BME280;109;19.806;-70.704;2023-02-17T15:12:18;101937.19;;;23.96;63.02
250;BME280;109;19.806;-70.704;2023-02-17T15:14:45;101930.56;;;24.36;61.50
250;BME280;109;19.806;-70.704;2023-02-17T15:17:13;101942.91;;;24.66;60.83
250;BME280;109;19.806;-70.704;2023-02-17T15:19:40;101933.97;;;24.92;59.98
250;BME280;109;19.806;-70.704;2023-02-17T15:22:10;101927.75;;;24.92;59.66
250;BME280;109;19.806;-70.704;2023-02-17T15:24:38;101936.38;;;24.75;59.57
250;BME280;109;19.806;-70.704;2023-02-17T15:27:05;101931.28;;;24.67;60.25
250;BME280;109;19.806;-70.704;2023-02-17T15:29:31;101919.31;;;25.02;59.43
250;BME280;109;19.806;-70.704;2023-02-17T15:32:00;101919.91;;;24.86;59.20
250;BME280;109;19.806;-70.704;2023-02-17T15:34:31;101925.56;;;25.03;59.19
250;BME280;109;19.806;-70.704;2023-02-17T15:36:59;101912.88;;;25.08;58.10